createdAt,value
2023-02-09T00:18:26.314Z,19.8
2023-02-09T00:48:26.320Z,19.7
2023-02-09T01:18:26.305Z,19.6
2023-02-09T01:48:26.310Z,19.6
2023-02-09T02:18:26.009Z,19.6
2023-02-09T02:48:26.325Z,19.5
2023-02-09T03:18:26.281Z,19.4
2023-02-09T03:48:26.302Z,19.3
2023-02-09T04:18:26.314Z,19.3
2023-02-09T04:48:26.281Z,19.6
2023-02-09T05:18:26.291Z,20.1
2023-02-09T05:48:26.273Z,20.3
2023-02-09T06:18:26.270Z,20.3
2023-02-09T06:48:26.267Z,20.3
2023-02-09T07:18:26.297Z,20.5
2023-02-09T07:48:26.287Z,20.6
2023-02-09T08:18:26.339Z,20.7
2023-02-09T08:48:26.313Z,20.8
2023-02-09T09:18:26.366Z,20.9
2023-02-09T09:48:26.334Z,21.0
2023-02-09T10:18:26.269Z,21.1
2023-02-09T10:48:26.256Z,21.1
2023-02-09T11:18:26.314Z,21.2
2023-02-09T11:48:26.272Z,21.1
2023-02-09T12:18:26.323Z,21.1
2023-02-09T12:48:25.957Z,21.1
2023-02-09T13:18:26.267Z,21.0
2023-02-09T13:48:26.249Z,21.0
2023-02-09T14:18:26.273Z,21.0
2023-02-09T14:48:26.271Z,21.0
2023-02-09T15:18:26.249Z,21.0
2023-02-09T15:48:26.250Z,21.0
2023-02-09T16:18:26.229Z,21.0
2023-02-09T16:48:26.241Z,21.0
2023-02-09T17:18:26.221Z,21.0
2023-02-09T17:48:26.303Z,21.0
2023-02-09T18:18:26.254Z,21.0
2023-02-09T18:48:26.230Z,21.0
2023-02-09T19:18:26.227Z,21.0
2023-02-09T19:48:26.305Z,20.9
2023-02-09T20:18:26.399Z,20.7
2023-02-09T20:48:26.408Z,20.5
2023-02-09T21:18:26.394Z,20.3
2023-02-09T21:48:26.400Z,20.1
2023-02-09T22:18:25.909Z,20.1
2023-02-09T22:48:26.201Z,19.8
2023-02-09T23:18:26.212Z,19.7
2023-02-09T23:48:26.220Z,19.6
